Accueil
METAR-TAF:

METAR-TAF

Aéroports :

Alpnach, Suisse

latitude: 46-56-19N, longitude: 8-17-03E, altitude: 440 m

Observation

Le bulletin a été fait il y a 37 minutes, à 11:50 UTC
Vent 12 kt de nord/nord-est, variant entre nord et nord-est
Température -1°C
Humidité 74%
Pression 1011 hPa
Visibilité: 6000 m
Ciel couvert à une hauteur de 2300 ft

METAR: LSMA 231150Z AUTO 03012KT 350V050 6000NDV OVC023 M01/M05 Q1011 RMK

Heure: 13:27 (12:27 UTC)


TAF: absent

Observations et prévisions météorologiques de plus de 4000 aéroports (messages METAR et TAF).

Les stations disponibles sont représentées par des disques jaunes et rouges sur la carte.

Passer la souris dessus pour voir le nom de la station.

Cliquer dessus pour voir les observations et prévisions météorologiques.

Pour changer de carte: cliquez sur les boutons verts avec une croix noire pour zoomer, sur le bouton vert avec un tiret pour effectuer un zoom arrière, ou sur les flèches vertes pour les cartes adjacentes.


METAR-TAF: